sensor_id;sensor_type;location;lat;lon;timestamp;P1;durP1;ratioP1;P2;durP2;ratioP2
30892;SDS011;17595;50.884;4.346;2023-01-10T00:01:24;13.40;;;2.88;;
30892;SDS011;17595;50.884;4.346;2023-01-10T00:03:50;12.35;;;2.70;;
30892;SDS011;17595;50.884;4.346;2023-01-10T00:06:15;11.40;;;2.53;;
30892;SDS011;17595;50.884;4.346;2023-01-10T00:08:41;9.85;;;2.80;;
30892;SDS011;17595;50.884;4.346;2023-01-10T00:11:07;9.93;;;2.35;;
30892;SDS011;17595;50.884;4.346;2023-01-10T00:13:52;14.93;;;2.50;;
30892;SDS011;17595;50.884;4.346;2023-01-10T00:16:18;13.10;;;2.90;;
30892;SDS011;17595;50.884;4.346;2023-01-10T00:18:44;12.48;;;2.78;;
30892;SDS011;17595;50.884;4.346;2023-01-10T00:21:09;10.93;;;2.80;;
30892;SDS011;17595;50.884;4.346;2023-01-10T00:23:35;11.50;;;2.85;;
30892;SDS011;17595;50.884;4.346;2023-01-10T00:26:01;15.57;;;3.28;;
30892;SDS011;17595;50.884;4.346;2023-01-10T00:28:26;13.00;;;2.83;;
30892;SDS011;17595;50.884;4.346;2023-01-10T00:30:53;9.52;;;2.60;;
30892;SDS011;17595;50.884;4.346;2023-01-10T00:33:20;15.73;;;2.75;;
30892;SDS011;17595;50.884;4.346;2023-01-10T00:35:46;8.88;;;2.70;;
30892;SDS011;17595;50.884;4.346;2023-01-10T00:38:12;13.60;;;2.85;;
30892;SDS011;17595;50.884;4.346;2023-01-10T00:40:39;15.98;;;3.30;;
30892;SDS011;17595;50.884;4.346;2023-01-10T00:43:05;17.85;;;2.88;;
30892;SDS011;17595;50.884;4.346;2023-01-10T00:45:49;14.10;;;3.10;;
30892;SDS011;17595;50.884;4.346;2023-01-10T00:48:15;15.43;;;3.30;;
30892;SDS011;17595;50.884;4.346;2023-01-10T00:50:40;17.40;;;3.13;;
30892;SDS011;17595;50.884;4.346;2023-01-10T00:53:07;13.27;;;2.67;;
30892;SDS011;17595;50.884;4.346;2023-01-10T00:55:33;14.65;;;2.90;;
30892;SDS011;17595;50.884;4.346;2023-01-10T00:58:00;17.05;;;2.78;;
30892;SDS011;17595;50.884;4.346;2023-01-10T01:00:26;14.73;;;2.70;;
30892;SDS011;17595;50.884;4.346;2023-01-10T01:02:52;15.43;;;3.03;;
30892;SDS011;17595;50.884;4.346;2023-01-10T01:05:19;11.85;;;2.60;;
30892;SDS011;17595;50.884;4.346;2023-01-10T01:07:48;12.73;;;2.45;;
30892;SDS011;17595;50.884;4.346;2023-01-10T01:10:15;14.70;;;2.90;;
30892;SDS011;17595;50.884;4.346;2023-01-10T01:12:59;11.73;;;2.63;;
30892;SDS011;17595;50.884;4.346;2023-01-10T01:15:30;17.17;;;2.88;;
30892;SDS011;17595;50.884;4.346;2023-01-10T01:17:57;21.02;;;3.05;;
30892;SDS011;17595;50.884;4.346;2023-01-10T01:20:22;17.33;;;2.30;;
30892;SDS011;17595;50.884;4.346;2023-01-10T01:22:48;15.13;;;2.45;;
30892;SDS011;17595;50.884;4.346;2023-01-10T01:25:13;14.85;;;3.40;;
30892;SDS011;17595;50.884;4.346;2023-01-10T01:27:39;19.45;;;3.00;;
30892;SDS011;17595;50.884;4.346;2023-01-10T01:30:05;19.15;;;3.78;;
30892;SDS011;17595;50.884;4.346;2023-01-10T01:32:32;19.38;;;3.85;;
30892;SDS011;17595;50.884;4.346;2023-01-10T01:34:58;11.52;;;2.70;;
30892;SDS011;17595;50.884;4.346;2023-01-10T01:37:24;17.45;;;3.58;;
30892;SDS011;17595;50.884;4.346;2023-01-10T01:39:50;14.43;;;2.63;;
30892;SDS011;17595;50.884;4.346;2023-01-10T01:42:27;17.25;;;3.22;;
30892;SDS011;17595;50.884;4.346;2023-01-10T01:45:05;16.27;;;3.25;;
30892;SDS011;17595;50.884;4.346;2023-01-10T01:53:11;21.95;;;3.53;;
30892;SDS011;17595;50.884;4.346;2023-01-10T01:55:50;15.48;;;2.97;;
30892;SDS011;17595;50.884;4.346;2023-01-10T01:58:19;12.23;;;3.13;;
30892;SDS011;17595;50.884;4.346;2023-01-10T02:00:51;19.02;;;3.08;;
30892;SDS011;17595;50.884;4.346;2023-01-10T02:03:17;18.80;;;3.58;;
30892;SDS011;17595;50.884;4.346;2023-01-10T02:05:42;19.20;;;3.83;;
30892;SDS011;17595;50.884;4.346;2023-01-10T02:08:09;15.32;;;3.30;;
30892;SDS011;17595;50.884;4.346;2023-01-10T02:10:41;21.45;;;3.58;;
30892;SDS011;17595;50.884;4.346;2023-01-10T02:13:13;12.82;;;3.13;;
30892;SDS011;17595;50.884;4.346;2023-01-10T02:15:42;23.58;;;3.47;;
30892;SDS011;17595;50.884;4.346;2023-01-10T02:18:08;13.20;;;2.75;;
30892;SDS011;17595;50.884;4.346;2023-01-10T02:20:40;15.40;;;2.67;;
30892;SDS011;17595;50.884;4.346;2023-01-10T02:36:42;12.23;;;3.42;;
30892;SDS011;17595;50.884;4.346;2023-01-10T02:39:33;15.02;;;3.00;;
30892;SDS011;17595;50.884;4.346;2023-01-10T02:44:43;16.13;;;3.38;;
30892;SDS011;17595;50.884;4.346;2023-01-10T02:47:22;20.58;;;3.22;;
30892;SDS011;17595;50.884;4.346;2023-01-10T02:49:48;19.52;;;3.50;;
30892;SDS011;17595;50.884;4.346;2023-01-10T02:52:20;21.88;;;3.35;;
30892;SDS011;17595;50.884;4.346;2023-01-10T02:54:50;16.33;;;2.75;;
30892;SDS011;17595;50.884;4.346;2023-01-10T03:00:24;19.42;;;3.17;;
30892;SDS011;17595;50.884;4.346;2023-01-10T03:06:33;22.80;;;3.03;;
30892;SDS011;17595;50.884;4.346;2023-01-10T03:11:40;14.25;;;3.25;;
30892;SDS011;17595;50.884;4.346;2023-01-10T03:14:12;20.90;;;3.60;;
30892;SDS011;17595;50.884;4.346;2023-01-10T03:16:52;23.58;;;3.53;;
30892;SDS011;17595;50.884;4.346;2023-01-10T03:19:23;13.43;;;3.03;;
30892;SDS011;17595;50.884;4.346;2023-01-10T03:21:53;19.58;;;3.33;;
30892;SDS011;17595;50.884;4.346;2023-01-10T03:24:27;20.80;;;3.77;;
30892;SDS011;17595;50.884;4.346;2023-01-10T03:27:05;18.95;;;3.10;;
30892;SDS011;17595;50.884;4.346;2023-01-10T03:30:36;32.85;;;3.95;;
30892;SDS011;17595;50.884;4.346;2023-01-10T03:32:29;19.83;;;3.33;;
30892;SDS011;17595;50.884;4.346;2023-01-10T03:34:57;16.25;;;3.58;;
30892;SDS011;17595;50.884;4.346;2023-01-10T03:39:56;22.42;;;3.50;;
30892;SDS011;17595;50.884;4.346;2023-01-10T03:45:50;18.70;;;3.78;;
30892;SDS011;17595;50.884;4.346;2023-01-10T03:48:23;15.90;;;3.20;;
30892;SDS011;17595;50.884;4.346;2023-01-10T03:50:52;18.02;;;3.40;;
30892;SDS011;17595;50.884;4.346;2023-01-10T03:53:18;24.25;;;3.25;;
30892;SDS011;17595;50.884;4.346;2023-01-10T03:55:44;21.88;;;3.20;;
30892;SDS011;17595;50.884;4.346;2023-01-10T03:58:09;21.42;;;4.03;;
30892;SDS011;17595;50.884;4.346;2023-01-10T04:00:35;18.23;;;4.00;;
30892;SDS011;17595;50.884;4.346;2023-01-10T04:03:01;22.60;;;4.43;;
30892;SDS011;17595;50.884;4.346;2023-01-10T04:05:26;24.27;;;4.05;;
30892;SDS011;17595;50.884;4.346;2023-01-10T04:07:52;23.85;;;3.67;;
30892;SDS011;17595;50.884;4.346;2023-01-10T04:10:17;28.35;;;4.25;;
30892;SDS011;17595;50.884;4.346;2023-01-10T04:12:44;21.90;;;3.42;;
30892;SDS011;17595;50.884;4.346;2023-01-10T04:15:10;21.58;;;4.25;;
30892;SDS011;17595;50.884;4.346;2023-01-10T04:17:36;15.63;;;3.55;;
30892;SDS011;17595;50.884;4.346;2023-01-10T04:20:01;21.02;;;3.58;;
30892;SDS011;17595;50.884;4.346;2023-01-10T04:22:27;22.88;;;3.92;;
30892;SDS011;17595;50.884;4.346;2023-01-10T04:24:53;22.40;;;3.65;;
30892;SDS011;17595;50.884;4.346;2023-01-10T04:27:18;24.67;;;3.67;;
30892;SDS011;17595;50.884;4.346;2023-01-10T04:29:45;26.95;;;4.05;;
30892;SDS011;17595;50.884;4.346;2023-01-10T04:32:11;21.17;;;4.80;;
30892;SDS011;17595;50.884;4.346;2023-01-10T04:34:36;28.80;;;4.05;;
30892;SDS011;17595;50.884;4.346;2023-01-10T04:37:02;23.88;;;4.70;;
30892;SDS011;17595;50.884;4.346;2023-01-10T04:39:27;16.90;;;3.47;;
30892;SDS011;17595;50.884;4.346;2023-01-10T04:41:53;21.80;;;3.90;;
30892;SDS011;17595;50.884;4.346;2023-01-10T04:44:19;22.40;;;3.78;;
30892;SDS011;17595;50.884;4.346;2023-01-10T04:46:44;22.45;;;4.10;;
30892;SDS011;17595;50.884;4.346;2023-01-10T04:49:10;17.90;;;3.60;;
30892;SDS011;17595;50.884;4.346;2023-01-10T04:51:36;18.95;;;3.63;;
30892;SDS011;17595;50.884;4.346;2023-01-10T04:54:01;26.00;;;8.10;;
30892;SDS011;17595;50.884;4.346;2023-01-10T04:56:27;28.23;;;7.45;;
30892;SDS011;17595;50.884;4.346;2023-01-10T04:58:52;21.52;;;3.72;;
30892;SDS011;17595;50.884;4.346;2023-01-10T05:01:19;22.27;;;4.25;;
30892;SDS011;17595;50.884;4.346;2023-01-10T05:03:47;16.50;;;3.28;;
30892;SDS011;17595;50.884;4.346;2023-01-10T05:06:17;28.45;;;4.05;;
30892;SDS011;17595;50.884;4.346;2023-01-10T05:08:43;28.25;;;4.65;;
30892;SDS011;17595;50.884;4.346;2023-01-10T05:11:09;20.05;;;3.67;;
30892;SDS011;17595;50.884;4.346;2023-01-10T05:13:35;24.67;;;3.67;;
30892;SDS011;17595;50.884;4.346;2023-01-10T05:16:01;25.50;;;4.25;;
30892;SDS011;17595;50.884;4.346;2023-01-10T05:18:27;25.45;;;4.78;;
30892;SDS011;17595;50.884;4.346;2023-01-10T05:21:00;20.08;;;3.47;;
30892;SDS011;17595;50.884;4.346;2023-01-10T05:23:36;31.33;;;4.35;;
30892;SDS011;17595;50.884;4.346;2023-01-10T05:26:05;24.95;;;3.78;;
30892;SDS011;17595;50.884;4.346;2023-01-10T05:28:32;30.13;;;3.78;;
30892;SDS011;17595;50.884;4.346;2023-01-10T05:30:58;23.55;;;4.90;;
30892;SDS011;17595;50.884;4.346;2023-01-10T05:33:23;20.58;;;3.90;;
30892;SDS011;17595;50.884;4.346;2023-01-10T05:35:49;27.60;;;3.58;;
30892;SDS011;17595;50.884;4.346;2023-01-10T05:38:14;24.50;;;3.55;;
30892;SDS011;17595;50.884;4.346;2023-01-10T05:40:40;15.80;;;3.55;;
30892;SDS011;17595;50.884;4.346;2023-01-10T05:43:06;24.90;;;3.67;;
30892;SDS011;17595;50.884;4.346;2023-01-10T05:45:32;26.10;;;3.70;;
30892;SDS011;17595;50.884;4.346;2023-01-10T05:47:57;23.17;;;3.75;;
30892;SDS011;17595;50.884;4.346;2023-01-10T05:50:23;27.58;;;4.18;;
30892;SDS011;17595;50.884;4.346;2023-01-10T05:52:48;26.40;;;3.95;;
30892;SDS011;17595;50.884;4.346;2023-01-10T05:55:14;23.77;;;3.60;;
30892;SDS011;17595;50.884;4.346;2023-01-10T05:57:40;30.83;;;4.63;;
30892;SDS011;17595;50.884;4.346;2023-01-10T06:00:05;26.83;;;3.45;;
30892;SDS011;17595;50.884;4.346;2023-01-10T06:02:32;24.55;;;4.13;;
30892;SDS011;17595;50.884;4.346;2023-01-10T06:04:57;18.42;;;3.03;;
30892;SDS011;17595;50.884;4.346;2023-01-10T06:07:23;20.67;;;3.40;;
30892;SDS011;17595;50.884;4.346;2023-01-10T06:09:49;21.63;;;4.63;;
30892;SDS011;17595;50.884;4.346;2023-01-10T06:12:15;15.20;;;3.42;;
30892;SDS011;17595;50.884;4.346;2023-01-10T06:14:43;22.98;;;3.97;;
30892;SDS011;17595;50.884;4.346;2023-01-10T06:17:09;20.85;;;3.42;;
30892;SDS011;17595;50.884;4.346;2023-01-10T06:19:35;20.95;;;3.55;;
30892;SDS011;17595;50.884;4.346;2023-01-10T06:22:01;21.38;;;3.85;;
30892;SDS011;17595;50.884;4.346;2023-01-10T06:24:27;23.50;;;3.67;;
30892;SDS011;17595;50.884;4.346;2023-01-10T06:26:53;18.67;;;3.45;;
30892;SDS011;17595;50.884;4.346;2023-01-10T06:29:19;27.10;;;4.25;;
30892;SDS011;17595;50.884;4.346;2023-01-10T06:31:44;16.88;;;3.72;;
30892;SDS011;17595;50.884;4.346;2023-01-10T06:34:10;26.23;;;3.70;;
30892;SDS011;17595;50.884;4.346;2023-01-10T06:36:35;22.58;;;4.07;;
30892;SDS011;17595;50.884;4.346;2023-01-10T06:39:01;18.70;;;3.08;;
30892;SDS011;17595;50.884;4.346;2023-01-10T06:41:27;15.93;;;3.30;;
30892;SDS011;17595;50.884;4.346;2023-01-10T06:43:52;22.92;;;4.25;;
30892;SDS011;17595;50.884;4.346;2023-01-10T06:46:18;19.52;;;3.90;;
30892;SDS011;17595;50.884;4.346;2023-01-10T06:48:44;18.13;;;3.75;;
30892;SDS011;17595;50.884;4.346;2023-01-10T06:51:11;26.63;;;3.88;;
30892;SDS011;17595;50.884;4.346;2023-01-10T06:53:38;24.13;;;4.03;;
30892;SDS011;17595;50.884;4.346;2023-01-10T06:56:03;24.10;;;4.18;;
30892;SDS011;17595;50.884;4.346;2023-01-10T06:58:30;19.17;;;3.60;;
30892;SDS011;17595;50.884;4.346;2023-01-10T07:00:56;23.85;;;4.18;;
30892;SDS011;17595;50.884;4.346;2023-01-10T07:03:22;22.75;;;4.32;;
30892;SDS011;17595;50.884;4.346;2023-01-10T07:05:47;20.27;;;3.53;;
30892;SDS011;17595;50.884;4.346;2023-01-10T07:08:13;25.35;;;3.40;;
30892;SDS011;17595;50.884;4.346;2023-01-10T07:10:42;19.55;;;3.13;;
30892;SDS011;17595;50.884;4.346;2023-01-10T07:15:33;17.73;;;3.40;;
30892;SDS011;17595;50.884;4.346;2023-01-10T07:17:59;16.80;;;3.50;;
30892;SDS011;17595;50.884;4.346;2023-01-10T07:20:25;22.75;;;3.40;;
30892;SDS011;17595;50.884;4.346;2023-01-10T07:22:52;24.13;;;3.60;;
30892;SDS011;17595;50.884;4.346;2023-01-10T07:25:18;21.15;;;3.85;;
30892;SDS011;17595;50.884;4.346;2023-01-10T07:27:44;17.50;;;3.83;;
30892;SDS011;17595;50.884;4.346;2023-01-10T07:30:10;14.65;;;3.38;;
30892;SDS011;17595;50.884;4.346;2023-01-10T07:32:35;20.77;;;3.90;;
30892;SDS011;17595;50.884;4.346;2023-01-10T07:35:01;23.55;;;4.38;;
30892;SDS011;17595;50.884;4.346;2023-01-10T07:37:27;21.92;;;3.78;;
30892;SDS011;17595;50.884;4.346;2023-01-10T07:39:52;27.85;;;4.88;;
30892;SDS011;17595;50.884;4.346;2023-01-10T07:42:18;19.75;;;3.72;;
30892;SDS011;17595;50.884;4.346;2023-01-10T07:44:43;17.52;;;3.35;;
30892;SDS011;17595;50.884;4.346;2023-01-10T07:47:09;17.88;;;3.30;;
30892;SDS011;17595;50.884;4.346;2023-01-10T07:49:35;23.65;;;4.05;;
30892;SDS011;17595;50.884;4.346;2023-01-10T07:52:00;22.45;;;4.53;;
30892;SDS011;17595;50.884;4.346;2023-01-10T07:54:26;20.60;;;3.75;;
30892;SDS011;17595;50.884;4.346;2023-01-10T07:56:51;18.02;;;3.85;;
30892;SDS011;17595;50.884;4.346;2023-01-10T07:59:17;18.35;;;3.80;;
30892;SDS011;17595;50.884;4.346;2023-01-10T08:01:42;18.77;;;3.35;;
30892;SDS011;17595;50.884;4.346;2023-01-10T08:04:08;20.00;;;3.42;;
30892;SDS011;17595;50.884;4.346;2023-01-10T08:06:34;26.63;;;4.20;;
30892;SDS011;17595;50.884;4.346;2023-01-10T08:08:59;21.70;;;4.15;;
30892;SDS011;17595;50.884;4.346;2023-01-10T08:11:27;24.80;;;3.80;;
30892;SDS011;17595;50.884;4.346;2023-01-10T08:13:53;15.88;;;4.10;;
30892;SDS011;17595;50.884;4.346;2023-01-10T08:16:19;21.05;;;4.43;;
30892;SDS011;17595;50.884;4.346;2023-01-10T08:18:44;20.23;;;4.35;;
30892;SDS011;17595;50.884;4.346;2023-01-10T08:21:10;19.50;;;4.28;;
30892;SDS011;17595;50.884;4.346;2023-01-10T08:23:36;19.00;;;4.88;;
30892;SDS011;17595;50.884;4.346;2023-01-10T08:26:01;17.85;;;3.42;;
30892;SDS011;17595;50.884;4.346;2023-01-10T08:28:27;19.65;;;4.35;;
30892;SDS011;17595;50.884;4.346;2023-01-10T08:30:53;19.92;;;4.00;;
30892;SDS011;17595;50.884;4.346;2023-01-10T08:33:22;24.85;;;4.32;;
30892;SDS011;17595;50.884;4.346;2023-01-10T08:35:49;21.58;;;4.72;;
30892;SDS011;17595;50.884;4.346;2023-01-10T08:38:16;16.52;;;3.83;;
30892;SDS011;17595;50.884;4.346;2023-01-10T08:40:41;20.35;;;3.70;;
30892;SDS011;17595;50.884;4.346;2023-01-10T08:43:08;20.00;;;4.35;;
30892;SDS011;17595;50.884;4.346;2023-01-10T08:45:36;20.75;;;4.10;;
30892;SDS011;17595;50.884;4.346;2023-01-10T08:48:03;16.77;;;4.25;;
30892;SDS011;17595;50.884;4.346;2023-01-10T08:50:29;19.45;;;3.40;;
30892;SDS011;17595;50.884;4.346;2023-01-10T08:52:56;21.60;;;3.83;;
30892;SDS011;17595;50.884;4.346;2023-01-10T08:55:23;21.42;;;4.13;;
30892;SDS011;17595;50.884;4.346;2023-01-10T08:57:48;24.55;;;4.18;;
30892;SDS011;17595;50.884;4.346;2023-01-10T09:00:14;23.90;;;4.50;;
30892;SDS011;17595;50.884;4.346;2023-01-10T09:02:40;21.20;;;4.45;;
30892;SDS011;17595;50.884;4.346;2023-01-10T09:05:07;20.88;;;4.40;;
30892;SDS011;17595;50.884;4.346;2023-01-10T09:07:33;22.52;;;4.07;;
30892;SDS011;17595;50.884;4.346;2023-01-10T09:09:58;23.58;;;4.10;;
30892;SDS011;17595;50.884;4.346;2023-01-10T09:12:25;14.65;;;4.00;;
30892;SDS011;17595;50.884;4.346;2023-01-10T09:15:09;18.52;;;3.72;;
30892;SDS011;17595;50.884;4.346;2023-01-10T09:17:35;17.65;;;3.88;;
30892;SDS011;17595;50.884;4.346;2023-01-10T09:20:01;16.35;;;3.22;;
30892;SDS011;17595;50.884;4.346;2023-01-10T09:22:30;22.83;;;4.43;;
30892;SDS011;17595;50.884;4.346;2023-01-10T09:24:56;23.02;;;4.40;;
30892;SDS011;17595;50.884;4.346;2023-01-10T09:27:22;27.20;;;4.53;;
30892;SDS011;17595;50.884;4.346;2023-01-10T09:29:47;19.63;;;4.53;;
30892;SDS011;17595;50.884;4.346;2023-01-10T09:32:13;21.40;;;4.13;;
30892;SDS011;17595;50.884;4.346;2023-01-10T09:34:39;16.27;;;3.88;;
30892;SDS011;17595;50.884;4.346;2023-01-10T09:37:04;24.13;;;4.38;;
30892;SDS011;17595;50.884;4.346;2023-01-10T09:39:30;23.90;;;5.10;;
30892;SDS011;17595;50.884;4.346;2023-01-10T09:42:03;27.02;;;4.70;;
30892;SDS011;17595;50.884;4.346;2023-01-10T09:52:43;27.35;;;4.70;;
30892;SDS011;17595;50.884;4.346;2023-01-10T09:55:27;21.48;;;4.50;;
30892;SDS011;17595;50.884;4.346;2023-01-10T09:57:55;23.67;;;4.40;;
30892;SDS011;17595;50.884;4.346;2023-01-10T10:00:26;19.88;;;3.83;;
30892;SDS011;17595;50.884;4.346;2023-01-10T10:03:18;24.42;;;4.93;;
30892;SDS011;17595;50.884;4.346;2023-01-10T10:05:45;20.20;;;3.92;;
30892;SDS011;17595;50.884;4.346;2023-01-10T10:08:13;22.98;;;4.35;;
30892;SDS011;17595;50.884;4.346;2023-01-10T10:10:54;23.00;;;4.53;;
30892;SDS011;17595;50.884;4.346;2023-01-10T10:19:19;20.17;;;4.20;;
30892;SDS011;17595;50.884;4.346;2023-01-10T10:36:21;18.80;;;3.95;;
30892;SDS011;17595;50.884;4.346;2023-01-10T10:38:50;24.67;;;4.65;;
30892;SDS011;17595;50.884;4.346;2023-01-10T10:46:58;25.95;;;4.07;;
30892;SDS011;17595;50.884;4.346;2023-01-10T10:52:16;18.50;;;4.50;;
30892;SDS011;17595;50.884;4.346;2023-01-10T10:54:54;27.70;;;5.45;;
30892;SDS011;17595;50.884;4.346;2023-01-10T10:57:22;18.70;;;4.40;;
30892;SDS011;17595;50.884;4.346;2023-01-10T10:59:51;23.80;;;4.30;;
30892;SDS011;17595;50.884;4.346;2023-01-10T11:02:22;15.77;;;3.22;;
30892;SDS011;17595;50.884;4.346;2023-01-10T11:04:52;23.65;;;4.25;;
30892;SDS011;17595;50.884;4.346;2023-01-10T11:07:22;23.30;;;3.97;;
30892;SDS011;17595;50.884;4.346;2023-01-10T11:09:49;15.18;;;3.22;;
30892;SDS011;17595;50.884;4.346;2023-01-10T11:12:40;23.92;;;3.80;;
30892;SDS011;17595;50.884;4.346;2023-01-10T11:15:12;20.73;;;3.95;;
30892;SDS011;17595;50.884;4.346;2023-01-10T11:18:05;16.10;;;3.40;;
30892;SDS011;17595;50.884;4.346;2023-01-10T11:20:42;21.35;;;4.18;;
30892;SDS011;17595;50.884;4.346;2023-01-10T11:25:46;20.40;;;4.07;;
30892;SDS011;17595;50.884;4.346;2023-01-10T11:28:13;19.52;;;4.00;;
30892;SDS011;17595;50.884;4.346;2023-01-10T11:30:40;24.00;;;3.90;;
30892;SDS011;17595;50.884;4.346;2023-01-10T11:33:30;21.85;;;3.88;;
30892;SDS011;17595;50.884;4.346;2023-01-10T11:36:03;15.85;;;3.50;;
30892;SDS011;17595;50.884;4.346;2023-01-10T11:38:31;19.00;;;3.30;;
30892;SDS011;17595;50.884;4.346;2023-01-10T11:41:04;20.67;;;4.10;;
30892;SDS011;17595;50.884;4.346;2023-01-10T11:43:46;20.88;;;4.22;;
30892;SDS011;17595;50.884;4.346;2023-01-10T11:46:21;14.55;;;4.32;;
30892;SDS011;17595;50.884;4.346;2023-01-10T11:48:58;21.83;;;4.22;;
30892;SDS011;17595;50.884;4.346;2023-01-10T11:51:27;17.88;;;3.70;;
30892;SDS011;17595;50.884;4.346;2023-01-10T11:53:59;20.35;;;4.75;;
30892;SDS011;17595;50.884;4.346;2023-01-10T11:56:30;22.85;;;4.63;;
30892;SDS011;17595;50.884;4.346;2023-01-10T11:58:58;19.83;;;4.18;;
30892;SDS011;17595;50.884;4.346;2023-01-10T12:01:38;19.90;;;3.88;;
30892;SDS011;17595;50.884;4.346;2023-01-10T12:04:18;21.55;;;4.07;;
30892;SDS011;17595;50.884;4.346;2023-01-10T12:06:46;19.27;;;3.90;;
30892;SDS011;17595;50.884;4.346;2023-01-10T12:09:58;18.15;;;3.17;;
30892;SDS011;17595;50.884;4.346;2023-01-10T12:12:18;13.77;;;3.33;;
30892;SDS011;17595;50.884;4.346;2023-01-10T12:14:45;21.73;;;4.05;;
30892;SDS011;17595;50.884;4.346;2023-01-10T12:17:14;23.70;;;4.07;;
30892;SDS011;17595;50.884;4.346;2023-01-10T12:19:55;24.40;;;3.63;;
30892;SDS011;17595;50.884;4.346;2023-01-10T12:22:38;19.60;;;3.50;;
30892;SDS011;17595;50.884;4.346;2023-01-10T12:25:46;21.23;;;3.95;;
30892;SDS011;17595;50.884;4.346;2023-01-10T12:28:00;14.00;;;3.30;;
30892;SDS011;17595;50.884;4.346;2023-01-10T12:33:12;17.52;;;3.13;;
30892;SDS011;17595;50.884;4.346;2023-01-10T12:35:42;22.80;;;3.95;;
30892;SDS011;17595;50.884;4.346;2023-01-10T12:38:31;15.95;;;3.50;;
30892;SDS011;17595;50.884;4.346;2023-01-10T12:41:26;16.48;;;3.47;;
30892;SDS011;17595;50.884;4.346;2023-01-10T12:44:23;21.80;;;3.85;;
30892;SDS011;17595;50.884;4.346;2023-01-10T12:47:08;16.80;;;3.60;;
30892;SDS011;17595;50.884;4.346;2023-01-10T12:52:43;18.20;;;3.17;;
30892;SDS011;17595;50.884;4.346;2023-01-10T12:55:18;15.10;;;3.80;;
30892;SDS011;17595;50.884;4.346;2023-01-10T12:57:46;19.65;;;3.78;;
30892;SDS011;17595;50.884;4.346;2023-01-10T13:00:17;16.70;;;3.40;;
30892;SDS011;17595;50.884;4.346;2023-01-10T13:02:54;18.23;;;3.20;;
30892;SDS011;17595;50.884;4.346;2023-01-10T13:05:24;14.02;;;3.35;;
30892;SDS011;17595;50.884;4.346;2023-01-10T13:07:53;21.83;;;3.55;;
30892;SDS011;17595;50.884;4.346;2023-01-10T13:10:23;15.45;;;3.33;;
30892;SDS011;17595;50.884;4.346;2023-01-10T13:15:36;12.77;;;3.13;;
30892;SDS011;17595;50.884;4.346;2023-01-10T13:18:24;13.40;;;4.63;;
30892;SDS011;17595;50.884;4.346;2023-01-10T13:21:08;22.13;;;3.85;;
30892;SDS011;17595;50.884;4.346;2023-01-10T13:23:50;15.00;;;3.35;;
30892;SDS011;17595;50.884;4.346;2023-01-10T13:26:17;19.10;;;3.40;;
30892;SDS011;17595;50.884;4.346;2023-01-10T13:29:17;17.58;;;3.05;;
30892;SDS011;17595;50.884;4.346;2023-01-10T13:31:36;19.73;;;3.40;;
30892;SDS011;17595;50.884;4.346;2023-01-10T13:34:05;10.45;;;3.03;;
30892;SDS011;17595;50.884;4.346;2023-01-10T13:36:38;14.85;;;3.15;;
30892;SDS011;17595;50.884;4.346;2023-01-10T13:39:18;15.38;;;2.80;;
30892;SDS011;17595;50.884;4.346;2023-01-10T13:52:47;11.60;;;2.80;;
30892;SDS011;17595;50.884;4.346;2023-01-10T13:55:56;16.40;;;4.10;;
30892;SDS011;17595;50.884;4.346;2023-01-10T13:58:03;19.52;;;3.40;;
30892;SDS011;17595;50.884;4.346;2023-01-10T14:00:42;12.07;;;3.15;;
30892;SDS011;17595;50.884;4.346;2023-01-10T14:09:04;16.75;;;2.92;;
30892;SDS011;17595;50.884;4.346;2023-01-10T14:11:52;12.40;;;3.33;;
30892;SDS011;17595;50.884;4.346;2023-01-10T14:14:25;12.75;;;2.80;;
30892;SDS011;17595;50.884;4.346;2023-01-10T14:16:57;13.00;;;3.10;;
30892;SDS011;17595;50.884;4.346;2023-01-10T14:19:40;12.43;;;2.75;;
30892;SDS011;17595;50.884;4.346;2023-01-10T14:22:20;13.88;;;3.10;;
30892;SDS011;17595;50.884;4.346;2023-01-10T14:24:54;11.07;;;2.63;;
30892;SDS011;17595;50.884;4.346;2023-01-10T14:27:21;12.10;;;3.47;;
30892;SDS011;17595;50.884;4.346;2023-01-10T14:29:52;10.25;;;3.42;;
30892;SDS011;17595;50.884;4.346;2023-01-10T14:32:29;10.40;;;2.60;;
30892;SDS011;17595;50.884;4.346;2023-01-10T14:35:01;8.80;;;2.78;;
30892;SDS011;17595;50.884;4.346;2023-01-10T14:37:38;11.15;;;2.80;;
30892;SDS011;17595;50.884;4.346;2023-01-10T14:42:43;8.60;;;2.58;;
30892;SDS011;17595;50.884;4.346;2023-01-10T14:48:23;8.48;;;2.25;;
30892;SDS011;17595;50.884;4.346;2023-01-10T14:53:38;7.28;;;2.05;;
30892;SDS011;17595;50.884;4.346;2023-01-10T14:56:28;6.07;;;2.50;;
30892;SDS011;17595;50.884;4.346;2023-01-10T14:58:52;5.72;;;2.00;;
30892;SDS011;17595;50.884;4.346;2023-01-10T15:01:21;4.30;;;1.67;;
30892;SDS011;17595;50.884;4.346;2023-01-10T15:03:48;8.77;;;1.80;;
30892;SDS011;17595;50.884;4.346;2023-01-10T15:06:15;7.35;;;1.55;;
30892;SDS011;17595;50.884;4.346;2023-01-10T15:08:40;7.47;;;1.80;;
30892;SDS011;17595;50.884;4.346;2023-01-10T15:11:06;4.35;;;1.40;;
30892;SDS011;17595;50.884;4.346;2023-01-10T15:13:39;6.15;;;1.58;;
30892;SDS011;17595;50.884;4.346;2023-01-10T15:16:20;2.28;;;1.20;;
30892;SDS011;17595;50.884;4.346;2023-01-10T15:18:48;2.35;;;1.05;;
30892;SDS011;17595;50.884;4.346;2023-01-10T15:21:15;4.55;;;1.55;;
30892;SDS011;17595;50.884;4.346;2023-01-10T15:23:44;2.75;;;1.48;;
30892;SDS011;17595;50.884;4.346;2023-01-10T15:26:14;3.05;;;1.30;;
30892;SDS011;17595;50.884;4.346;2023-01-10T15:28:44;3.78;;;1.00;;
30892;SDS011;17595;50.884;4.346;2023-01-10T15:31:28;3.25;;;1.17;;
30892;SDS011;17595;50.884;4.346;2023-01-10T15:33:54;3.67;;;1.17;;
30892;SDS011;17595;50.884;4.346;2023-01-10T15:36:20;2.75;;;1.33;;
30892;SDS011;17595;50.884;4.346;2023-01-10T15:38:50;1.73;;;1.00;;
30892;SDS011;17595;50.884;4.346;2023-01-10T15:41:17;2.17;;;1.20;;
30892;SDS011;17595;50.884;4.346;2023-01-10T15:43:44;1.00;;;0.60;;
30892;SDS011;17595;50.884;4.346;2023-01-10T15:49:00;2.67;;;0.80;;
30892;SDS011;17595;50.884;4.346;2023-01-10T15:51:27;3.33;;;1.05;;
30892;SDS011;17595;50.884;4.346;2023-01-10T15:58:57;3.25;;;1.20;;
30892;SDS011;17595;50.884;4.346;2023-01-10T16:01:23;1.25;;;0.90;;
30892;SDS011;17595;50.884;4.346;2023-01-10T16:09:00;1.95;;;1.10;;
30892;SDS011;17595;50.884;4.346;2023-01-10T16:11:39;3.35;;;1.48;;
30892;SDS011;17595;50.884;4.346;2023-01-10T16:14:29;2.28;;;1.48;;
30892;SDS011;17595;50.884;4.346;2023-01-10T16:16:55;5.65;;;1.58;;
30892;SDS011;17595;50.884;4.346;2023-01-10T16:19:20;1.92;;;1.40;;
30892;SDS011;17595;50.884;4.346;2023-01-10T16:21:48;1.70;;;1.20;;
30892;SDS011;17595;50.884;4.346;2023-01-10T16:24:22;2.60;;;1.70;;
30892;SDS011;17595;50.884;4.346;2023-01-10T16:26:49;1.50;;;1.08;;
30892;SDS011;17595;50.884;4.346;2023-01-10T16:29:15;1.50;;;1.08;;
30892;SDS011;17595;50.884;4.346;2023-01-10T16:31:44;2.75;;;1.90;;
30892;SDS011;17595;50.884;4.346;2023-01-10T16:34:10;2.65;;;1.85;;
30892;SDS011;17595;50.884;4.346;2023-01-10T16:36:35;2.15;;;1.60;;
30892;SDS011;17595;50.884;4.346;2023-01-10T16:39:05;2.00;;;1.17;;
30892;SDS011;17595;50.884;4.346;2023-01-10T16:41:35;2.30;;;1.17;;
30892;SDS011;17595;50.884;4.346;2023-01-10T16:44:19;3.22;;;0.75;;
30892;SDS011;17595;50.884;4.346;2023-01-10T16:46:45;3.25;;;1.27;;
30892;SDS011;17595;50.884;4.346;2023-01-10T16:49:11;1.25;;;1.00;;
30892;SDS011;17595;50.884;4.346;2023-01-10T16:51:37;1.05;;;0.82;;
30892;SDS011;17595;50.884;4.346;2023-01-10T16:54:04;1.13;;;0.95;;
30892;SDS011;17595;50.884;4.346;2023-01-10T16:56:29;2.10;;;1.50;;